sensor_id;sensor_type;location;lat;lon;timestamp;P1;durP1;ratioP1;P2;durP2;ratioP2
10281;SDS011;5186;59.472;18.048;2023-09-07T00:00:22;2.63;;;1.30;;
10281;SDS011;5186;59.472;18.048;2023-09-07T00:02:47;2.17;;;1.20;;
10281;SDS011;5186;59.472;18.048;2023-09-07T00:05:13;4.20;;;1.10;;
10281;SDS011;5186;59.472;18.048;2023-09-07T00:07:39;2.00;;;0.90;;
10281;SDS011;5186;59.472;18.048;2023-09-07T00:10:04;1.97;;;1.10;;
10281;SDS011;5186;59.472;18.048;2023-09-07T00:12:30;2.60;;;1.20;;
10281;SDS011;5186;59.472;18.048;2023-09-07T00:14:57;4.57;;;1.40;;
10281;SDS011;5186;59.472;18.048;2023-09-07T00:17:22;2.00;;;1.00;;
10281;SDS011;5186;59.472;18.048;2023-09-07T00:19:48;2.00;;;1.03;;
10281;SDS011;5186;59.472;18.048;2023-09-07T00:22:15;2.03;;;1.10;;
10281;SDS011;5186;59.472;18.048;2023-09-07T00:24:42;1.47;;;1.10;;
10281;SDS011;5186;59.472;18.048;2023-09-07T00:27:08;2.93;;;1.00;;
10281;SDS011;5186;59.472;18.048;2023-09-07T00:29:36;3.03;;;1.13;;
10281;SDS011;5186;59.472;18.048;2023-09-07T00:32:02;1.33;;;1.07;;
10281;SDS011;5186;59.472;18.048;2023-09-07T00:34:28;2.77;;;1.30;;
10281;SDS011;5186;59.472;18.048;2023-09-07T00:36:54;4.33;;;1.13;;
10281;SDS011;5186;59.472;18.048;2023-09-07T00:39:19;2.90;;;1.20;;
10281;SDS011;5186;59.472;18.048;2023-09-07T00:41:45;3.43;;;1.10;;
10281;SDS011;5186;59.472;18.048;2023-09-07T00:44:10;2.20;;;1.50;;
10281;SDS011;5186;59.472;18.048;2023-09-07T00:46:36;3.10;;;1.00;;
10281;SDS011;5186;59.472;18.048;2023-09-07T00:49:02;4.03;;;1.20;;
10281;SDS011;5186;59.472;18.048;2023-09-07T00:51:29;3.87;;;1.40;;
10281;SDS011;5186;59.472;18.048;2023-09-07T00:53:55;1.47;;;1.20;;
10281;SDS011;5186;59.472;18.048;2023-09-07T00:56:21;3.13;;;1.33;;
10281;SDS011;5186;59.472;18.048;2023-09-07T00:58:46;1.93;;;1.20;;
10281;SDS011;5186;59.472;18.048;2023-09-07T01:01:13;2.37;;;1.23;;
10281;SDS011;5186;59.472;18.048;2023-09-07T01:03:38;2.20;;;1.50;;
10281;SDS011;5186;59.472;18.048;2023-09-07T01:06:06;2.67;;;1.23;;
10281;SDS011;5186;59.472;18.048;2023-09-07T01:08:45;3.07;;;1.30;;
10281;SDS011;5186;59.472;18.048;2023-09-07T01:11:16;2.20;;;1.33;;
10281;SDS011;5186;59.472;18.048;2023-09-07T01:13:43;2.30;;;1.20;;
10281;SDS011;5186;59.472;18.048;2023-09-07T01:16:09;3.10;;;1.40;;
10281;SDS011;5186;59.472;18.048;2023-09-07T01:18:36;3.80;;;1.30;;
10281;SDS011;5186;59.472;18.048;2023-09-07T01:21:03;1.53;;;1.13;;
10281;SDS011;5186;59.472;18.048;2023-09-07T01:23:36;1.77;;;1.20;;
10281;SDS011;5186;59.472;18.048;2023-09-07T01:26:06;4.37;;;1.40;;
10281;SDS011;5186;59.472;18.048;2023-09-07T01:28:33;2.93;;;1.30;;
10281;SDS011;5186;59.472;18.048;2023-09-07T01:31:02;1.93;;;1.30;;
10281;SDS011;5186;59.472;18.048;2023-09-07T01:33:28;3.30;;;1.23;;
10281;SDS011;5186;59.472;18.048;2023-09-07T01:35:54;1.40;;;1.10;;
10281;SDS011;5186;59.472;18.048;2023-09-07T01:38:20;1.90;;;1.30;;
10281;SDS011;5186;59.472;18.048;2023-09-07T01:40:45;2.87;;;1.23;;
10281;SDS011;5186;59.472;18.048;2023-09-07T01:43:11;3.10;;;1.20;;
10281;SDS011;5186;59.472;18.048;2023-09-07T01:45:36;2.73;;;1.20;;
10281;SDS011;5186;59.472;18.048;2023-09-07T01:48:02;2.67;;;1.47;;
10281;SDS011;5186;59.472;18.048;2023-09-07T01:50:28;1.97;;;1.40;;
10281;SDS011;5186;59.472;18.048;2023-09-07T01:52:54;4.80;;;1.30;;
10281;SDS011;5186;59.472;18.048;2023-09-07T01:55:19;1.53;;;1.30;;
10281;SDS011;5186;59.472;18.048;2023-09-07T01:57:45;4.57;;;1.40;;
10281;SDS011;5186;59.472;18.048;2023-09-07T02:00:11;2.47;;;1.23;;
10281;SDS011;5186;59.472;18.048;2023-09-07T02:02:37;2.43;;;1.50;;
10281;SDS011;5186;59.472;18.048;2023-09-07T02:05:03;2.17;;;1.53;;
10281;SDS011;5186;59.472;18.048;2023-09-07T02:07:29;2.97;;;1.30;;
10281;SDS011;5186;59.472;18.048;2023-09-07T02:09:54;2.47;;;1.30;;
10281;SDS011;5186;59.472;18.048;2023-09-07T02:12:20;2.07;;;1.30;;
10281;SDS011;5186;59.472;18.048;2023-09-07T02:14:45;2.13;;;1.17;;
10281;SDS011;5186;59.472;18.048;2023-09-07T02:17:11;1.87;;;1.00;;
10281;SDS011;5186;59.472;18.048;2023-09-07T02:19:42;3.57;;;1.00;;
10281;SDS011;5186;59.472;18.048;2023-09-07T02:22:08;2.23;;;1.13;;
10281;SDS011;5186;59.472;18.048;2023-09-07T02:24:34;3.30;;;1.20;;
10281;SDS011;5186;59.472;18.048;2023-09-07T02:26:59;3.90;;;1.30;;
10281;SDS011;5186;59.472;18.048;2023-09-07T02:29:25;2.33;;;1.13;;
10281;SDS011;5186;59.472;18.048;2023-09-07T02:31:51;2.50;;;1.13;;
10281;SDS011;5186;59.472;18.048;2023-09-07T02:34:17;3.27;;;1.20;;
10281;SDS011;5186;59.472;18.048;2023-09-07T02:36:43;2.17;;;1.20;;
10281;SDS011;5186;59.472;18.048;2023-09-07T02:39:08;2.17;;;1.10;;
10281;SDS011;5186;59.472;18.048;2023-09-07T02:41:34;2.53;;;1.10;;
10281;SDS011;5186;59.472;18.048;2023-09-07T02:44:00;4.33;;;1.83;;
10281;SDS011;5186;59.472;18.048;2023-09-07T02:46:26;3.03;;;1.30;;
10281;SDS011;5186;59.472;18.048;2023-09-07T02:48:51;2.03;;;0.90;;
10281;SDS011;5186;59.472;18.048;2023-09-07T02:51:19;2.67;;;1.40;;
10281;SDS011;5186;59.472;18.048;2023-09-07T02:53:45;2.77;;;1.20;;
10281;SDS011;5186;59.472;18.048;2023-09-07T02:56:10;1.70;;;1.10;;
10281;SDS011;5186;59.472;18.048;2023-09-07T02:58:36;3.27;;;1.10;;
10281;SDS011;5186;59.472;18.048;2023-09-07T03:01:05;3.47;;;1.47;;
10281;SDS011;5186;59.472;18.048;2023-09-07T03:03:38;2.10;;;1.07;;
10281;SDS011;5186;59.472;18.048;2023-09-07T03:06:09;1.17;;;1.10;;
10281;SDS011;5186;59.472;18.048;2023-09-07T03:08:36;2.07;;;1.20;;
10281;SDS011;5186;59.472;18.048;2023-09-07T03:11:03;2.77;;;1.20;;
10281;SDS011;5186;59.472;18.048;2023-09-07T03:13:29;1.93;;;1.13;;
10281;SDS011;5186;59.472;18.048;2023-09-07T03:15:55;3.93;;;1.27;;
10281;SDS011;5186;59.472;18.048;2023-09-07T03:18:21;1.50;;;1.20;;
10281;SDS011;5186;59.472;18.048;2023-09-07T03:20:46;2.00;;;1.00;;
10281;SDS011;5186;59.472;18.048;2023-09-07T03:23:12;1.67;;;1.10;;
10281;SDS011;5186;59.472;18.048;2023-09-07T03:25:38;1.53;;;1.30;;
10281;SDS011;5186;59.472;18.048;2023-09-07T03:28:03;1.73;;;1.13;;
10281;SDS011;5186;59.472;18.048;2023-09-07T03:30:29;2.80;;;1.30;;
10281;SDS011;5186;59.472;18.048;2023-09-07T03:32:55;3.70;;;1.30;;
10281;SDS011;5186;59.472;18.048;2023-09-07T03:35:20;2.67;;;1.27;;
10281;SDS011;5186;59.472;18.048;2023-09-07T03:37:46;1.83;;;1.20;;
10281;SDS011;5186;59.472;18.048;2023-09-07T03:40:12;2.20;;;1.20;;
10281;SDS011;5186;59.472;18.048;2023-09-07T03:42:37;5.27;;;1.90;;
10281;SDS011;5186;59.472;18.048;2023-09-07T03:45:04;1.83;;;1.23;;
10281;SDS011;5186;59.472;18.048;2023-09-07T03:47:30;2.27;;;1.13;;
10281;SDS011;5186;59.472;18.048;2023-09-07T03:49:56;2.43;;;1.20;;
10281;SDS011;5186;59.472;18.048;2023-09-07T03:52:22;1.73;;;1.20;;
10281;SDS011;5186;59.472;18.048;2023-09-07T03:54:50;1.73;;;1.33;;
10281;SDS011;5186;59.472;18.048;2023-09-07T03:57:17;1.50;;;1.10;;
10281;SDS011;5186;59.472;18.048;2023-09-07T03:59:43;2.63;;;1.40;;
10281;SDS011;5186;59.472;18.048;2023-09-07T04:02:09;2.10;;;1.33;;
10281;SDS011;5186;59.472;18.048;2023-09-07T04:04:34;3.90;;;1.37;;
10281;SDS011;5186;59.472;18.048;2023-09-07T04:07:00;4.30;;;1.20;;
10281;SDS011;5186;59.472;18.048;2023-09-07T04:09:25;3.47;;;1.50;;
10281;SDS011;5186;59.472;18.048;2023-09-07T04:11:51;4.60;;;1.43;;
10281;SDS011;5186;59.472;18.048;2023-09-07T04:14:17;4.03;;;1.73;;
10281;SDS011;5186;59.472;18.048;2023-09-07T04:16:43;7.30;;;1.90;;
10281;SDS011;5186;59.472;18.048;2023-09-07T04:19:09;3.93;;;1.53;;
10281;SDS011;5186;59.472;18.048;2023-09-07T04:21:35;2.20;;;1.40;;
10281;SDS011;5186;59.472;18.048;2023-09-07T04:24:01;3.57;;;1.87;;
10281;SDS011;5186;59.472;18.048;2023-09-07T04:26:27;2.73;;;1.60;;
10281;SDS011;5186;59.472;18.048;2023-09-07T04:28:54;3.57;;;2.10;;
10281;SDS011;5186;59.472;18.048;2023-09-07T04:31:19;4.07;;;1.50;;
10281;SDS011;5186;59.472;18.048;2023-09-07T04:33:45;5.67;;;2.00;;
10281;SDS011;5186;59.472;18.048;2023-09-07T04:36:12;3.43;;;1.77;;
10281;SDS011;5186;59.472;18.048;2023-09-07T04:38:39;3.20;;;2.13;;
10281;SDS011;5186;59.472;18.048;2023-09-07T04:41:09;5.17;;;2.07;;
10281;SDS011;5186;59.472;18.048;2023-09-07T04:43:39;4.77;;;1.87;;
10281;SDS011;5186;59.472;18.048;2023-09-07T04:46:08;4.17;;;2.63;;
10281;SDS011;5186;59.472;18.048;2023-09-07T04:48:37;4.80;;;2.30;;
10281;SDS011;5186;59.472;18.048;2023-09-07T04:51:07;4.43;;;2.50;;
10281;SDS011;5186;59.472;18.048;2023-09-07T04:53:34;3.17;;;1.73;;
10281;SDS011;5186;59.472;18.048;2023-09-07T04:56:02;5.53;;;2.27;;
10281;SDS011;5186;59.472;18.048;2023-09-07T04:58:29;6.50;;;2.50;;
10281;SDS011;5186;59.472;18.048;2023-09-07T05:01:01;4.37;;;2.30;;
10281;SDS011;5186;59.472;18.048;2023-09-07T05:03:28;4.57;;;2.10;;
10281;SDS011;5186;59.472;18.048;2023-09-07T05:05:54;7.17;;;2.27;;
10281;SDS011;5186;59.472;18.048;2023-09-07T05:08:19;4.77;;;2.70;;
10281;SDS011;5186;59.472;18.048;2023-09-07T05:10:46;4.83;;;2.87;;
10281;SDS011;5186;59.472;18.048;2023-09-07T05:13:12;7.63;;;2.90;;
10281;SDS011;5186;59.472;18.048;2023-09-07T05:15:46;5.80;;;2.70;;
10281;SDS011;5186;59.472;18.048;2023-09-07T05:18:16;8.60;;;2.87;;
10281;SDS011;5186;59.472;18.048;2023-09-07T05:20:42;4.70;;;2.63;;
10281;SDS011;5186;59.472;18.048;2023-09-07T05:23:09;9.17;;;3.03;;
10281;SDS011;5186;59.472;18.048;2023-09-07T05:25:42;7.20;;;3.30;;
10281;SDS011;5186;59.472;18.048;2023-09-07T05:28:09;9.30;;;3.23;;
10281;SDS011;5186;59.472;18.048;2023-09-07T05:30:34;8.60;;;3.07;;
10281;SDS011;5186;59.472;18.048;2023-09-07T05:33:00;7.57;;;3.47;;
10281;SDS011;5186;59.472;18.048;2023-09-07T05:35:25;5.83;;;3.23;;
10281;SDS011;5186;59.472;18.048;2023-09-07T05:37:54;8.70;;;3.07;;
10281;SDS011;5186;59.472;18.048;2023-09-07T05:40:19;9.10;;;3.50;;
10281;SDS011;5186;59.472;18.048;2023-09-07T05:42:45;7.80;;;3.47;;
10281;SDS011;5186;59.472;18.048;2023-09-07T05:45:10;8.47;;;3.77;;
10281;SDS011;5186;59.472;18.048;2023-09-07T05:47:36;8.43;;;3.83;;
10281;SDS011;5186;59.472;18.048;2023-09-07T05:50:02;9.23;;;3.60;;
10281;SDS011;5186;59.472;18.048;2023-09-07T05:52:27;6.07;;;3.43;;
10281;SDS011;5186;59.472;18.048;2023-09-07T05:54:53;6.03;;;3.50;;
10281;SDS011;5186;59.472;18.048;2023-09-07T05:57:18;12.90;;;3.13;;
10281;SDS011;5186;59.472;18.048;2023-09-07T05:59:44;9.47;;;3.67;;
10281;SDS011;5186;59.472;18.048;2023-09-07T06:02:09;7.30;;;3.60;;
10281;SDS011;5186;59.472;18.048;2023-09-07T06:04:35;8.80;;;3.33;;
10281;SDS011;5186;59.472;18.048;2023-09-07T06:07:01;7.97;;;3.43;;
10281;SDS011;5186;59.472;18.048;2023-09-07T06:09:27;5.80;;;3.97;;
10281;SDS011;5186;59.472;18.048;2023-09-07T06:11:53;8.43;;;3.33;;
10281;SDS011;5186;59.472;18.048;2023-09-07T06:14:19;6.73;;;3.30;;
10281;SDS011;5186;59.472;18.048;2023-09-07T06:16:45;6.07;;;3.23;;
10281;SDS011;5186;59.472;18.048;2023-09-07T06:19:10;10.10;;;3.67;;
10281;SDS011;5186;59.472;18.048;2023-09-07T06:21:36;7.03;;;3.53;;
10281;SDS011;5186;59.472;18.048;2023-09-07T06:24:01;8.30;;;2.90;;
10281;SDS011;5186;59.472;18.048;2023-09-07T06:26:27;6.03;;;2.90;;
10281;SDS011;5186;59.472;18.048;2023-09-07T06:28:53;4.27;;;2.90;;
10281;SDS011;5186;59.472;18.048;2023-09-07T06:31:18;6.37;;;3.40;;
10281;SDS011;5186;59.472;18.048;2023-09-07T06:33:44;7.23;;;2.83;;
10281;SDS011;5186;59.472;18.048;2023-09-07T06:36:09;7.67;;;2.63;;
10281;SDS011;5186;59.472;18.048;2023-09-07T06:38:35;5.97;;;2.27;;
10281;SDS011;5186;59.472;18.048;2023-09-07T06:41:00;5.20;;;2.50;;
10281;SDS011;5186;59.472;18.048;2023-09-07T06:43:26;6.10;;;2.90;;
10281;SDS011;5186;59.472;18.048;2023-09-07T06:45:52;5.03;;;2.50;;
10281;SDS011;5186;59.472;18.048;2023-09-07T06:48:17;6.77;;;2.80;;
10281;SDS011;5186;59.472;18.048;2023-09-07T06:50:43;3.27;;;2.10;;
10281;SDS011;5186;59.472;18.048;2023-09-07T06:53:08;5.13;;;2.30;;
10281;SDS011;5186;59.472;18.048;2023-09-07T06:55:34;4.20;;;1.80;;
10281;SDS011;5186;59.472;18.048;2023-09-07T06:58:00;3.83;;;1.63;;
10281;SDS011;5186;59.472;18.048;2023-09-07T07:00:26;5.03;;;1.50;;
10281;SDS011;5186;59.472;18.048;2023-09-07T07:02:52;4.17;;;1.73;;
10281;SDS011;5186;59.472;18.048;2023-09-07T07:05:18;2.67;;;1.40;;
10281;SDS011;5186;59.472;18.048;2023-09-07T07:07:43;4.47;;;1.87;;
10281;SDS011;5186;59.472;18.048;2023-09-07T07:10:09;2.60;;;1.47;;
10281;SDS011;5186;59.472;18.048;2023-09-07T07:12:34;2.03;;;1.23;;
10281;SDS011;5186;59.472;18.048;2023-09-07T07:15:03;6.57;;;1.63;;
10281;SDS011;5186;59.472;18.048;2023-09-07T07:17:29;3.17;;;1.40;;
10281;SDS011;5186;59.472;18.048;2023-09-07T07:19:54;3.80;;;1.50;;
10281;SDS011;5186;59.472;18.048;2023-09-07T07:22:20;2.00;;;1.50;;
10281;SDS011;5186;59.472;18.048;2023-09-07T07:24:46;2.37;;;1.33;;
10281;SDS011;5186;59.472;18.048;2023-09-07T07:27:11;3.27;;;1.20;;
10281;SDS011;5186;59.472;18.048;2023-09-07T07:29:37;2.30;;;1.30;;
10281;SDS011;5186;59.472;18.048;2023-09-07T07:32:03;3.57;;;1.13;;
10281;SDS011;5186;59.472;18.048;2023-09-07T07:34:28;6.60;;;1.80;;
10281;SDS011;5186;59.472;18.048;2023-09-07T07:36:54;1.93;;;1.27;;
10281;SDS011;5186;59.472;18.048;2023-09-07T07:39:20;2.30;;;1.20;;
10281;SDS011;5186;59.472;18.048;2023-09-07T07:41:45;2.50;;;1.20;;
10281;SDS011;5186;59.472;18.048;2023-09-07T07:44:11;3.67;;;1.50;;
10281;SDS011;5186;59.472;18.048;2023-09-07T07:46:37;2.87;;;1.40;;
10281;SDS011;5186;59.472;18.048;2023-09-07T07:49:02;2.37;;;1.30;;
10281;SDS011;5186;59.472;18.048;2023-09-07T07:51:28;1.77;;;1.10;;
10281;SDS011;5186;59.472;18.048;2023-09-07T07:53:54;2.23;;;1.43;;
10281;SDS011;5186;59.472;18.048;2023-09-07T07:56:21;1.77;;;1.20;;
10281;SDS011;5186;59.472;18.048;2023-09-07T07:58:49;3.63;;;1.53;;
10281;SDS011;5186;59.472;18.048;2023-09-07T08:01:18;2.40;;;1.20;;
10281;SDS011;5186;59.472;18.048;2023-09-07T08:03:45;3.13;;;1.37;;
10281;SDS011;5186;59.472;18.048;2023-09-07T08:06:11;2.03;;;1.33;;
10281;SDS011;5186;59.472;18.048;2023-09-07T08:08:37;3.20;;;1.40;;
10281;SDS011;5186;59.472;18.048;2023-09-07T08:11:04;3.63;;;1.27;;
10281;SDS011;5186;59.472;18.048;2023-09-07T08:13:31;2.77;;;1.40;;
10281;SDS011;5186;59.472;18.048;2023-09-07T08:15:59;2.43;;;1.03;;
10281;SDS011;5186;59.472;18.048;2023-09-07T08:18:28;2.00;;;1.07;;
10281;SDS011;5186;59.472;18.048;2023-09-07T08:20:56;1.77;;;0.97;;
10281;SDS011;5186;59.472;18.048;2023-09-07T08:23:21;3.37;;;1.30;;
10281;SDS011;5186;59.472;18.048;2023-09-07T08:25:48;2.67;;;1.17;;
10281;SDS011;5186;59.472;18.048;2023-09-07T08:28:16;1.30;;;1.00;;
10281;SDS011;5186;59.472;18.048;2023-09-07T08:30:43;3.40;;;1.23;;
10281;SDS011;5186;59.472;18.048;2023-09-07T08:33:09;2.87;;;1.20;;
10281;SDS011;5186;59.472;18.048;2023-09-07T08:35:34;1.40;;;1.30;;
10281;SDS011;5186;59.472;18.048;2023-09-07T08:38:01;3.87;;;1.30;;
10281;SDS011;5186;59.472;18.048;2023-09-07T08:40:30;3.57;;;1.23;;
10281;SDS011;5186;59.472;18.048;2023-09-07T08:42:57;1.77;;;1.20;;
10281;SDS011;5186;59.472;18.048;2023-09-07T08:45:27;3.43;;;1.27;;
10281;SDS011;5186;59.472;18.048;2023-09-07T08:47:56;1.80;;;1.00;;
10281;SDS011;5186;59.472;18.048;2023-09-07T08:50:23;2.50;;;1.17;;
10281;SDS011;5186;59.472;18.048;2023-09-07T08:52:50;2.03;;;1.30;;
10281;SDS011;5186;59.472;18.048;2023-09-07T08:55:17;2.67;;;1.07;;
10281;SDS011;5186;59.472;18.048;2023-09-07T08:57:43;2.47;;;1.10;;
10281;SDS011;5186;59.472;18.048;2023-09-07T09:00:09;2.40;;;1.13;;
10281;SDS011;5186;59.472;18.048;2023-09-07T09:02:41;2.43;;;1.30;;
10281;SDS011;5186;59.472;18.048;2023-09-07T09:05:08;2.00;;;1.10;;
10281;SDS011;5186;59.472;18.048;2023-09-07T09:07:36;1.73;;;1.03;;
10281;SDS011;5186;59.472;18.048;2023-09-07T09:10:05;2.30;;;1.20;;
10281;SDS011;5186;59.472;18.048;2023-09-07T09:12:32;2.10;;;1.00;;
10281;SDS011;5186;59.472;18.048;2023-09-07T09:14:59;1.00;;;0.90;;
10281;SDS011;5186;59.472;18.048;2023-09-07T09:17:28;2.13;;;0.90;;
10281;SDS011;5186;59.472;18.048;2023-09-07T09:19:54;1.70;;;0.80;;
10281;SDS011;5186;59.472;18.048;2023-09-07T09:22:20;1.70;;;1.10;;
10281;SDS011;5186;59.472;18.048;2023-09-07T09:24:49;1.23;;;0.77;;
10281;SDS011;5186;59.472;18.048;2023-09-07T09:27:14;1.57;;;1.10;;
10281;SDS011;5186;59.472;18.048;2023-09-07T09:29:41;1.60;;;1.10;;
10281;SDS011;5186;59.472;18.048;2023-09-07T09:32:06;1.27;;;1.17;;
10281;SDS011;5186;59.472;18.048;2023-09-07T09:34:35;1.47;;;1.00;;
10281;SDS011;5186;59.472;18.048;2023-09-07T09:37:02;2.20;;;0.97;;
10281;SDS011;5186;59.472;18.048;2023-09-07T09:39:28;2.17;;;1.10;;
10281;SDS011;5186;59.472;18.048;2023-09-07T09:41:54;1.53;;;1.13;;
10281;SDS011;5186;59.472;18.048;2023-09-07T09:44:21;2.40;;;1.10;;
10281;SDS011;5186;59.472;18.048;2023-09-07T09:46:53;2.80;;;1.30;;
10281;SDS011;5186;59.472;18.048;2023-09-07T09:49:21;1.63;;;1.20;;
10281;SDS011;5186;59.472;18.048;2023-09-07T09:51:50;2.17;;;1.10;;
10281;SDS011;5186;59.472;18.048;2023-09-07T09:54:17;1.27;;;1.07;;
10281;SDS011;5186;59.472;18.048;2023-09-07T09:56:43;2.20;;;1.10;;
10281;SDS011;5186;59.472;18.048;2023-09-07T09:59:09;2.53;;;1.30;;
10281;SDS011;5186;59.472;18.048;2023-09-07T10:01:43;1.87;;;1.20;;
10281;SDS011;5186;59.472;18.048;2023-09-07T10:04:10;2.17;;;1.03;;
10281;SDS011;5186;59.472;18.048;2023-09-07T10:06:38;1.40;;;1.20;;
10281;SDS011;5186;59.472;18.048;2023-09-07T10:09:04;1.40;;;1.20;;
10281;SDS011;5186;59.472;18.048;2023-09-07T10:11:38;3.80;;;1.40;;
10281;SDS011;5186;59.472;18.048;2023-09-07T10:14:04;3.03;;;1.27;;
10281;SDS011;5186;59.472;18.048;2023-09-07T10:16:43;2.47;;;1.30;;
10281;SDS011;5186;59.472;18.048;2023-09-07T10:19:14;1.87;;;1.20;;
10281;SDS011;5186;59.472;18.048;2023-09-07T10:21:40;1.63;;;1.40;;
10281;SDS011;5186;59.472;18.048;2023-09-07T10:24:06;3.00;;;1.33;;
10281;SDS011;5186;59.472;18.048;2023-09-07T10:26:31;2.70;;;1.40;;
10281;SDS011;5186;59.472;18.048;2023-09-07T10:29:00;2.63;;;1.37;;
10281;SDS011;5186;59.472;18.048;2023-09-07T10:31:28;2.57;;;1.10;;
10281;SDS011;5186;59.472;18.048;2023-09-07T10:33:55;3.07;;;1.50;;
10281;SDS011;5186;59.472;18.048;2023-09-07T10:36:27;2.23;;;1.50;;
10281;SDS011;5186;59.472;18.048;2023-09-07T10:38:54;1.93;;;1.20;;
10281;SDS011;5186;59.472;18.048;2023-09-07T10:41:21;1.77;;;1.40;;
10281;SDS011;5186;59.472;18.048;2023-09-07T10:43:48;3.57;;;1.50;;
10281;SDS011;5186;59.472;18.048;2023-09-07T10:46:15;2.10;;;1.40;;
10281;SDS011;5186;59.472;18.048;2023-09-07T10:48:45;3.27;;;1.50;;
10281;SDS011;5186;59.472;18.048;2023-09-07T10:51:13;1.53;;;1.33;;
10281;SDS011;5186;59.472;18.048;2023-09-07T10:53:39;2.43;;;1.40;;
10281;SDS011;5186;59.472;18.048;2023-09-07T10:56:04;1.70;;;1.40;;
10281;SDS011;5186;59.472;18.048;2023-09-07T10:58:31;2.13;;;1.43;;
10281;SDS011;5186;59.472;18.048;2023-09-07T11:00:58;1.60;;;1.33;;
10281;SDS011;5186;59.472;18.048;2023-09-07T11:03:25;2.90;;;1.20;;
10281;SDS011;5186;59.472;18.048;2023-09-07T11:05:56;1.73;;;1.30;;
10281;SDS011;5186;59.472;18.048;2023-09-07T11:08:25;1.47;;;1.30;;
10281;SDS011;5186;59.472;18.048;2023-09-07T11:10:52;4.67;;;1.60;;
10281;SDS011;5186;59.472;18.048;2023-09-07T11:13:17;2.57;;;1.70;;
10281;SDS011;5186;59.472;18.048;2023-09-07T11:15:43;3.97;;;1.40;;
10281;SDS011;5186;59.472;18.048;2023-09-07T11:18:09;2.33;;;1.57;;
10281;SDS011;5186;59.472;18.048;2023-09-07T11:20:35;2.90;;;1.17;;
10281;SDS011;5186;59.472;18.048;2023-09-07T11:23:02;2.10;;;1.53;;
10281;SDS011;5186;59.472;18.048;2023-09-07T11:25:33;2.53;;;1.60;;
10281;SDS011;5186;59.472;18.048;2023-09-07T11:28:01;2.23;;;1.50;;
10281;SDS011;5186;59.472;18.048;2023-09-07T11:30:27;1.90;;;1.37;;
10281;SDS011;5186;59.472;18.048;2023-09-07T11:33:07;4.07;;;1.43;;
10281;SDS011;5186;59.472;18.048;2023-09-07T11:35:33;4.47;;;1.63;;
10281;SDS011;5186;59.472;18.048;2023-09-07T11:38:02;4.73;;;1.90;;
10281;SDS011;5186;59.472;18.048;2023-09-07T11:40:32;1.90;;;1.30;;
10281;SDS011;5186;59.472;18.048;2023-09-07T11:42:58;3.27;;;1.07;;
10281;SDS011;5186;59.472;18.048;2023-09-07T11:45:23;1.53;;;1.40;;
10281;SDS011;5186;59.472;18.048;2023-09-07T11:47:49;2.20;;;1.37;;
10281;SDS011;5186;59.472;18.048;2023-09-07T11:50:18;3.70;;;1.30;;
10281;SDS011;5186;59.472;18.048;2023-09-07T11:52:44;2.63;;;1.50;;
10281;SDS011;5186;59.472;18.048;2023-09-07T11:55:10;4.13;;;1.60;;
10281;SDS011;5186;59.472;18.048;2023-09-07T11:57:38;2.17;;;1.30;;
10281;SDS011;5186;59.472;18.048;2023-09-07T12:00:04;2.83;;;1.30;;
10281;SDS011;5186;59.472;18.048;2023-09-07T12:02:30;2.60;;;1.37;;
10281;SDS011;5186;59.472;18.048;2023-09-07T12:04:56;4.63;;;1.50;;
10281;SDS011;5186;59.472;18.048;2023-09-07T12:07:21;2.43;;;1.50;;
10281;SDS011;5186;59.472;18.048;2023-09-07T12:09:47;2.03;;;1.30;;
10281;SDS011;5186;59.472;18.048;2023-09-07T12:12:13;2.67;;;1.30;;
10281;SDS011;5186;59.472;18.048;2023-09-07T12:14:39;4.00;;;1.30;;
10281;SDS011;5186;59.472;18.048;2023-09-07T12:17:04;4.27;;;1.40;;
10281;SDS011;5186;59.472;18.048;2023-09-07T12:19:30;3.23;;;1.33;;
10281;SDS011;5186;59.472;18.048;2023-09-07T12:21:55;2.00;;;1.10;;
10281;SDS011;5186;59.472;18.048;2023-09-07T12:24:21;3.27;;;1.37;;
10281;SDS011;5186;59.472;18.048;2023-09-07T12:26:46;2.20;;;1.07;;
10281;SDS011;5186;59.472;18.048;2023-09-07T12:29:12;1.10;;;1.00;;
10281;SDS011;5186;59.472;18.048;2023-09-07T12:31:38;3.27;;;1.23;;
10281;SDS011;5186;59.472;18.048;2023-09-07T12:34:03;2.97;;;1.30;;
10281;SDS011;5186;59.472;18.048;2023-09-07T12:36:29;2.80;;;1.20;;
10281;SDS011;5186;59.472;18.048;2023-09-07T12:38:55;3.40;;;1.10;;
10281;SDS011;5186;59.472;18.048;2023-09-07T12:41:28;3.90;;;1.23;;
10281;SDS011;5186;59.472;18.048;2023-09-07T12:43:54;2.97;;;1.00;;
10281;SDS011;5186;59.472;18.048;2023-09-07T12:46:19;1.53;;;1.00;;
10281;SDS011;5186;59.472;18.048;2023-09-07T12:48:45;2.37;;;1.13;;
10281;SDS011;5186;59.472;18.048;2023-09-07T12:51:11;3.27;;;1.10;;
10281;SDS011;5186;59.472;18.048;2023-09-07T12:53:41;4.47;;;1.20;;
10281;SDS011;5186;59.472;18.048;2023-09-07T12:56:06;2.40;;;0.90;;
10281;SDS011;5186;59.472;18.048;2023-09-07T12:58:32;2.63;;;1.20;;
10281;SDS011;5186;59.472;18.048;2023-09-07T13:00:57;2.97;;;0.90;;
10281;SDS011;5186;59.472;18.048;2023-09-07T13:03:23;3.23;;;1.00;;
10281;SDS011;5186;59.472;18.048;2023-09-07T13:05:49;2.37;;;1.00;;
10281;SDS011;5186;59.472;18.048;2023-09-07T13:08:14;2.40;;;0.90;;
10281;SDS011;5186;59.472;18.048;2023-09-07T13:10:40;3.57;;;1.20;;
10281;SDS011;5186;59.472;18.048;2023-09-07T13:13:06;2.73;;;1.10;;
10281;SDS011;5186;59.472;18.048;2023-09-07T13:15:32;3.43;;;1.03;;
10281;SDS011;5186;59.472;18.048;2023-09-07T13:17:58;2.30;;;0.90;;
10281;SDS011;5186;59.472;18.048;2023-09-07T13:20:24;2.47;;;1.10;;
10281;SDS011;5186;59.472;18.048;2023-09-07T13:22:49;4.07;;;0.90;;
10281;SDS011;5186;59.472;18.048;2023-09-07T13:25:15;2.37;;;1.07;;
10281;SDS011;5186;59.472;18.048;2023-09-07T13:27:40;2.47;;;1.00;;
10281;SDS011;5186;59.472;18.048;2023-09-07T13:30:06;2.80;;;0.80;;
10281;SDS011;5186;59.472;18.048;2023-09-07T13:32:33;2.83;;;1.10;;
10281;SDS011;5186;59.472;18.048;2023-09-07T13:34:59;2.50;;;1.00;;
10281;SDS011;5186;59.472;18.048;2023-09-07T13:37:25;1.93;;;0.90;;
10281;SDS011;5186;59.472;18.048;2023-09-07T13:39:51;2.20;;;1.00;;
10281;SDS011;5186;59.472;18.048;2023-09-07T13:42:16;2.83;;;1.13;;
10281;SDS011;5186;59.472;18.048;2023-09-07T13:44:42;1.10;;;0.90;;
10281;SDS011;5186;59.472;18.048;2023-09-07T13:47:10;2.37;;;1.17;;
10281;SDS011;5186;59.472;18.048;2023-09-07T13:49:36;2.47;;;0.90;;
10281;SDS011;5186;59.472;18.048;2023-09-07T13:52:01;1.97;;;1.23;;
10281;SDS011;5186;59.472;18.048;2023-09-07T13:54:28;2.40;;;1.10;;
10281;SDS011;5186;59.472;18.048;2023-09-07T13:56:53;4.20;;;1.30;;
10281;SDS011;5186;59.472;18.048;2023-09-07T13:59:19;3.20;;;1.07;;
10281;SDS011;5186;59.472;18.048;2023-09-07T14:01:44;2.83;;;1.00;;
10281;SDS011;5186;59.472;18.048;2023-09-07T14:04:10;2.27;;;1.10;;
10281;SDS011;5186;59.472;18.048;2023-09-07T14:06:35;1.87;;;1.07;;
10281;SDS011;5186;59.472;18.048;2023-09-07T14:09:01;2.37;;;1.30;;
10281;SDS011;5186;59.472;18.048;2023-09-07T14:11:26;3.70;;;1.10;;
10281;SDS011;5186;59.472;18.048;2023-09-07T14:13:52;1.80;;;0.90;;
10281;SDS011;5186;59.472;18.048;2023-09-07T14:16:19;3.97;;;0.90;;
10281;SDS011;5186;59.472;18.048;2023-09-07T14:18:45;1.60;;;1.10;;
10281;SDS011;5186;59.472;18.048;2023-09-07T14:21:13;3.57;;;1.13;;
10281;SDS011;5186;59.472;18.048;2023-09-07T14:23:42;3.20;;;1.20;;
10281;SDS011;5186;59.472;18.048;2023-09-07T14:26:08;2.93;;;1.10;;
10281;SDS011;5186;59.472;18.048;2023-09-07T14:28:34;2.77;;;1.07;;
10281;SDS011;5186;59.472;18.048;2023-09-07T14:31:00;2.53;;;1.30;;
10281;SDS011;5186;59.472;18.048;2023-09-07T14:33:29;2.93;;;1.00;;
10281;SDS011;5186;59.472;18.048;2023-09-07T14:35:55;1.83;;;1.00;;
10281;SDS011;5186;59.472;18.048;2023-09-07T14:38:20;2.20;;;0.97;;
10281;SDS011;5186;59.472;18.048;2023-09-07T14:40:46;2.13;;;1.20;;
10281;SDS011;5186;59.472;18.048;2023-09-07T14:43:14;2.43;;;1.20;;